Briarcliff, Texas
Current Conditions -  °F | °C
As of 10:15 AM on Monday 24 Nov 2014 (Local Time) from KRYW Reporting Station
Clear Clear  
Wind Chill: 59°   Ceiling: Unl
Heat Index: 59°   Visibility: 10mi
Dew Point: 29°   Wind: 7mph
Humidity: 31%   Direction: 360°N
Pressure: 30.1"   Gusts: NA
Location:  30.3864°N, 98.0483°W
Report Text: KRYW 241615Z AUTO 36006KT 10SM CLR 15/M02 A3010 RMK AO2 T01511019
Loading
Personal Weather Stations






























Interactive Weather Map New forecast layout! Learn more

10-Day Weather Forecast

Advertisements
Track Severe Weather on mobile